Terminal Aerodrome Forecast
Issued by NWS Sioux Falls, SD

Home | Current Version | Previous Version | Graphics & Text | Print | Product List | Glossary On
Versions: 1 2 3 4 5 6 7 8 9 10 11 12 13 14 15 16 17 18 19 20 21 22 23 24 25 26 27 28 29 30 31 32 33 34
000
FTUS43 KFSD 171720
TAFSUX
TAF
KSUX 171720Z 1718/1818 10013KT P6SM SCT250
     FM180700 04013KT 5SM RASN OVC010
     FM180900 03012KT 2SM -SN OVC008
     FM181500 35014G22KT P6SM OVC008=

USA.gov is the U.S. government's official web portal to all federal, state and local government web resources and services.